sensor_id;sensor_type;location;lat;lon;timestamp;P1;durP1;ratioP1;P2;durP2;ratioP2
38935;SDS011;25541;47.458;9.644;2022-12-17T04:03:26;34.67;;;14.73;;
38935;SDS011;25541;47.458;9.644;2022-12-17T04:06:11;31.48;;;13.93;;
38935;SDS011;25541;47.458;9.644;2022-12-17T04:08:55;28.65;;;13.32;;
38935;SDS011;25541;47.458;9.644;2022-12-17T04:11:40;36.03;;;14.50;;
38935;SDS011;25541;47.458;9.644;2022-12-17T04:14:24;29.40;;;13.32;;
38935;SDS011;25541;47.458;9.644;2022-12-17T04:17:08;35.45;;;14.05;;
38935;SDS011;25541;47.458;9.644;2022-12-17T04:19:52;34.38;;;13.23;;
38935;SDS011;25541;47.458;9.644;2022-12-17T04:22:36;30.23;;;13.80;;
38935;SDS011;25541;47.458;9.644;2022-12-17T04:25:20;31.25;;;13.38;;
38935;SDS011;25541;47.458;9.644;2022-12-17T04:28:04;31.00;;;12.95;;
38935;SDS011;25541;47.458;9.644;2022-12-17T04:30:48;29.00;;;12.60;;
38935;SDS011;25541;47.458;9.644;2022-12-17T04:33:32;29.42;;;13.05;;
38935;SDS011;25541;47.458;9.644;2022-12-17T04:36:17;28.98;;;12.93;;
38935;SDS011;25541;47.458;9.644;2022-12-17T04:39:01;31.13;;;12.88;;
38935;SDS011;25541;47.458;9.644;2022-12-17T04:41:45;26.63;;;12.25;;
38935;SDS011;25541;47.458;9.644;2022-12-17T04:44:29;27.17;;;12.32;;
38935;SDS011;25541;47.458;9.644;2022-12-17T04:47:13;29.48;;;12.95;;
38935;SDS011;25541;47.458;9.644;2022-12-17T04:49:57;25.58;;;12.15;;
38935;SDS011;25541;47.458;9.644;2022-12-17T04:52:41;28.00;;;12.52;;
38935;SDS011;25541;47.458;9.644;2022-12-17T04:55:25;29.17;;;12.82;;
38935;SDS011;25541;47.458;9.644;2022-12-17T04:58:09;29.42;;;13.35;;
38935;SDS011;25541;47.458;9.644;2022-12-17T05:00:54;32.58;;;13.38;;
38935;SDS011;25541;47.458;9.644;2022-12-17T05:03:38;31.15;;;13.18;;
38935;SDS011;25541;47.458;9.644;2022-12-17T05:06:23;25.85;;;12.73;;
38935;SDS011;25541;47.458;9.644;2022-12-17T05:09:07;27.45;;;12.60;;
38935;SDS011;25541;47.458;9.644;2022-12-17T05:11:51;29.40;;;12.63;;
38935;SDS011;25541;47.458;9.644;2022-12-17T05:14:35;29.35;;;13.00;;
38935;SDS011;25541;47.458;9.644;2022-12-17T05:17:20;28.45;;;13.20;;
38935;SDS011;25541;47.458;9.644;2022-12-17T05:20:04;32.10;;;13.52;;
38935;SDS011;25541;47.458;9.644;2022-12-17T05:22:48;27.90;;;13.02;;
38935;SDS011;25541;47.458;9.644;2022-12-17T05:25:32;28.02;;;12.65;;
38935;SDS011;25541;47.458;9.644;2022-12-17T05:28:16;30.27;;;13.00;;
38935;SDS011;25541;47.458;9.644;2022-12-17T05:31:01;28.30;;;12.88;;
38935;SDS011;25541;47.458;9.644;2022-12-17T05:33:45;28.92;;;13.25;;
38935;SDS011;25541;47.458;9.644;2022-12-17T05:36:29;29.40;;;13.45;;
38935;SDS011;25541;47.458;9.644;2022-12-17T05:39:13;28.45;;;12.80;;
38935;SDS011;25541;47.458;9.644;2022-12-17T05:41:57;29.73;;;12.80;;
38935;SDS011;25541;47.458;9.644;2022-12-17T05:44:41;27.38;;;12.52;;
38935;SDS011;25541;47.458;9.644;2022-12-17T05:47:25;27.77;;;12.65;;
38935;SDS011;25541;47.458;9.644;2022-12-17T05:50:09;27.73;;;11.45;;
38935;SDS011;25541;47.458;9.644;2022-12-17T05:52:59;25.15;;;12.18;;
38935;SDS011;25541;47.458;9.644;2022-12-17T05:55:47;24.83;;;10.73;;
38935;SDS011;25541;47.458;9.644;2022-12-17T05:58:32;23.85;;;11.05;;
38935;SDS011;25541;47.458;9.644;2022-12-17T06:01:16;24.13;;;11.88;;
38935;SDS011;25541;47.458;9.644;2022-12-17T06:04:01;27.52;;;12.98;;
38935;SDS011;25541;47.458;9.644;2022-12-17T06:06:48;26.30;;;11.85;;
38935;SDS011;25541;47.458;9.644;2022-12-17T06:09:32;27.55;;;12.10;;
38935;SDS011;25541;47.458;9.644;2022-12-17T06:12:16;27.83;;;11.88;;
38935;SDS011;25541;47.458;9.644;2022-12-17T06:15:00;24.52;;;11.15;;
38935;SDS011;25541;47.458;9.644;2022-12-17T06:17:51;24.38;;;11.75;;
38935;SDS011;25541;47.458;9.644;2022-12-17T06:20:39;25.17;;;12.30;;
38935;SDS011;25541;47.458;9.644;2022-12-17T06:23:23;26.30;;;11.80;;
38935;SDS011;25541;47.458;9.644;2022-12-17T06:26:07;29.20;;;13.13;;
38935;SDS011;25541;47.458;9.644;2022-12-17T06:28:51;27.95;;;12.70;;
38935;SDS011;25541;47.458;9.644;2022-12-17T06:31:35;28.90;;;13.23;;
38935;SDS011;25541;47.458;9.644;2022-12-17T06:34:19;32.17;;;13.93;;
38935;SDS011;25541;47.458;9.644;2022-12-17T06:37:04;31.75;;;13.18;;
38935;SDS011;25541;47.458;9.644;2022-12-17T06:39:48;37.33;;;15.50;;
38935;SDS011;25541;47.458;9.644;2022-12-17T06:42:32;36.17;;;15.25;;
38935;SDS011;25541;47.458;9.644;2022-12-17T06:45:16;35.30;;;14.77;;
38935;SDS011;25541;47.458;9.644;2022-12-17T06:48:01;35.90;;;14.82;;
38935;SDS011;25541;47.458;9.644;2022-12-17T06:50:46;35.90;;;14.57;;
38935;SDS011;25541;47.458;9.644;2022-12-17T06:53:30;35.80;;;14.05;;
38935;SDS011;25541;47.458;9.644;2022-12-17T06:56:14;40.42;;;14.63;;
38935;SDS011;25541;47.458;9.644;2022-12-17T06:58:58;34.53;;;14.73;;
38935;SDS011;25541;47.458;9.644;2022-12-17T07:01:42;37.00;;;15.43;;
38935;SDS011;25541;47.458;9.644;2022-12-17T07:04:27;43.25;;;16.67;;
38935;SDS011;25541;47.458;9.644;2022-12-17T07:07:11;41.10;;;16.65;;
38935;SDS011;25541;47.458;9.644;2022-12-17T07:09:55;42.80;;;15.57;;
38935;SDS011;25541;47.458;9.644;2022-12-17T07:12:39;35.95;;;15.02;;
38935;SDS011;25541;47.458;9.644;2022-12-17T07:15:23;37.97;;;15.40;;
38935;SDS011;25541;47.458;9.644;2022-12-17T07:18:07;40.15;;;16.20;;
38935;SDS011;25541;47.458;9.644;2022-12-17T07:20:51;39.88;;;15.52;;
38935;SDS011;25541;47.458;9.644;2022-12-17T07:23:39;33.97;;;14.77;;
38935;SDS011;25541;47.458;9.644;2022-12-17T07:26:23;39.50;;;14.77;;
38935;SDS011;25541;47.458;9.644;2022-12-17T07:29:07;37.28;;;15.93;;
38935;SDS011;25541;47.458;9.644;2022-12-17T07:31:51;38.15;;;16.48;;
38935;SDS011;25541;47.458;9.644;2022-12-17T07:34:35;39.45;;;15.85;;
38935;SDS011;25541;47.458;9.644;2022-12-17T07:37:19;40.65;;;15.68;;
38935;SDS011;25541;47.458;9.644;2022-12-17T07:40:04;38.20;;;15.35;;
38935;SDS011;25541;47.458;9.644;2022-12-17T07:42:48;36.90;;;16.42;;
38935;SDS011;25541;47.458;9.644;2022-12-17T07:45:32;37.60;;;15.35;;
38935;SDS011;25541;47.458;9.644;2022-12-17T07:48:17;40.00;;;15.90;;
38935;SDS011;25541;47.458;9.644;2022-12-17T07:51:01;38.92;;;15.38;;
38935;SDS011;25541;47.458;9.644;2022-12-17T07:53:45;38.58;;;15.70;;
38935;SDS011;25541;47.458;9.644;2022-12-17T07:56:29;39.42;;;15.25;;
38935;SDS011;25541;47.458;9.644;2022-12-17T07:59:16;35.10;;;14.13;;
38935;SDS011;25541;47.458;9.644;2022-12-17T08:02:00;33.40;;;13.15;;
38935;SDS011;25541;47.458;9.644;2022-12-17T08:04:45;32.60;;;14.05;;
38935;SDS011;25541;47.458;9.644;2022-12-17T08:07:29;29.40;;;12.75;;
38935;SDS011;25541;47.458;9.644;2022-12-17T08:10:13;30.75;;;13.43;;
38935;SDS011;25541;47.458;9.644;2022-12-17T08:13:02;30.85;;;13.13;;
38935;SDS011;25541;47.458;9.644;2022-12-17T08:15:48;28.58;;;11.63;;
38935;SDS011;25541;47.458;9.644;2022-12-17T08:18:35;31.73;;;14.32;;
38935;SDS011;25541;47.458;9.644;2022-12-17T08:21:19;33.85;;;14.38;;
38935;SDS011;25541;47.458;9.644;2022-12-17T08:24:03;32.33;;;14.15;;
38935;SDS011;25541;47.458;9.644;2022-12-17T08:26:48;30.70;;;13.38;;
38935;SDS011;25541;47.458;9.644;2022-12-17T08:29:32;31.63;;;13.10;;
38935;SDS011;25541;47.458;9.644;2022-12-17T08:32:16;29.63;;;12.95;;
38935;SDS011;25541;47.458;9.644;2022-12-17T08:35:00;32.45;;;14.13;;
38935;SDS011;25541;47.458;9.644;2022-12-17T08:37:44;35.63;;;15.20;;
38935;SDS011;25541;47.458;9.644;2022-12-17T08:40:28;35.67;;;15.15;;
38935;SDS011;25541;47.458;9.644;2022-12-17T08:43:12;30.45;;;13.55;;
38935;SDS011;25541;47.458;9.644;2022-12-17T08:45:57;29.42;;;12.50;;
38935;SDS011;25541;47.458;9.644;2022-12-17T08:48:41;30.92;;;13.57;;
38935;SDS011;25541;47.458;9.644;2022-12-17T08:51:25;30.63;;;14.23;;
38935;SDS011;25541;47.458;9.644;2022-12-17T08:54:09;31.65;;;13.30;;
38935;SDS011;25541;47.458;9.644;2022-12-17T08:56:53;30.45;;;13.20;;
38935;SDS011;25541;47.458;9.644;2022-12-17T08:59:38;33.22;;;13.20;;
38935;SDS011;25541;47.458;9.644;2022-12-17T09:02:22;30.85;;;13.48;;
38935;SDS011;25541;47.458;9.644;2022-12-17T09:05:07;30.27;;;13.52;;
38935;SDS011;25541;47.458;9.644;2022-12-17T09:08:01;32.47;;;13.48;;
38935;SDS011;25541;47.458;9.644;2022-12-17T09:10:48;30.80;;;13.88;;
38935;SDS011;25541;47.458;9.644;2022-12-17T09:13:32;31.25;;;12.63;;
38935;SDS011;25541;47.458;9.644;2022-12-17T09:16:16;30.30;;;13.65;;
38935;SDS011;25541;47.458;9.644;2022-12-17T09:19:00;27.02;;;12.68;;
38935;SDS011;25541;47.458;9.644;2022-12-17T09:21:45;33.40;;;13.30;;
38935;SDS011;25541;47.458;9.644;2022-12-17T09:24:29;28.92;;;12.82;;
38935;SDS011;25541;47.458;9.644;2022-12-17T09:27:13;27.05;;;12.88;;
38935;SDS011;25541;47.458;9.644;2022-12-17T09:29:57;30.10;;;13.82;;
38935;SDS011;25541;47.458;9.644;2022-12-17T09:32:42;29.35;;;14.02;;
38935;SDS011;25541;47.458;9.644;2022-12-17T09:35:26;27.45;;;12.77;;
38935;SDS011;25541;47.458;9.644;2022-12-17T09:38:11;26.40;;;12.43;;
38935;SDS011;25541;47.458;9.644;2022-12-17T09:40:56;24.50;;;12.10;;
38935;SDS011;25541;47.458;9.644;2022-12-17T09:43:59;27.38;;;12.57;;
38935;SDS011;25541;47.458;9.644;2022-12-17T09:46:59;29.20;;;13.45;;
38935;SDS011;25541;47.458;9.644;2022-12-17T09:49:51;25.88;;;13.10;;
38935;SDS011;25541;47.458;9.644;2022-12-17T09:52:37;23.90;;;11.00;;
38935;SDS011;25541;47.458;9.644;2022-12-17T09:55:42;28.70;;;14.85;;
38935;SDS011;25541;47.458;9.644;2022-12-17T09:58:35;23.85;;;11.70;;
38935;SDS011;25541;47.458;9.644;2022-12-17T10:01:22;26.75;;;11.88;;
38935;SDS011;25541;47.458;9.644;2022-12-17T10:04:20;23.52;;;11.65;;
38935;SDS011;25541;47.458;9.644;2022-12-17T10:07:16;24.02;;;11.55;;
38935;SDS011;25541;47.458;9.644;2022-12-17T10:10:14;23.33;;;11.23;;
38935;SDS011;25541;47.458;9.644;2022-12-17T10:13:00;25.50;;;12.32;;
38935;SDS011;25541;47.458;9.644;2022-12-17T10:15:44;24.60;;;11.80;;
38935;SDS011;25541;47.458;9.644;2022-12-17T10:18:28;25.33;;;12.18;;
38935;SDS011;25541;47.458;9.644;2022-12-17T10:21:13;22.98;;;12.18;;
38935;SDS011;25541;47.458;9.644;2022-12-17T10:24:07;27.55;;;12.10;;
38935;SDS011;25541;47.458;9.644;2022-12-17T10:26:52;25.13;;;12.25;;
38935;SDS011;25541;47.458;9.644;2022-12-17T10:29:38;28.27;;;12.07;;
38935;SDS011;25541;47.458;9.644;2022-12-17T10:32:24;26.13;;;12.13;;
38935;SDS011;25541;47.458;9.644;2022-12-17T10:35:22;29.83;;;13.50;;
38935;SDS011;25541;47.458;9.644;2022-12-17T10:38:21;26.17;;;12.85;;
38935;SDS011;25541;47.458;9.644;2022-12-17T10:41:19;24.80;;;11.93;;
38935;SDS011;25541;47.458;9.644;2022-12-17T10:44:18;23.65;;;11.48;;
38935;SDS011;25541;47.458;9.644;2022-12-17T10:47:09;24.15;;;11.48;;
38935;SDS011;25541;47.458;9.644;2022-12-17T10:49:56;24.38;;;11.90;;
38935;SDS011;25541;47.458;9.644;2022-12-17T10:52:42;23.70;;;12.00;;
38935;SDS011;25541;47.458;9.644;2022-12-17T10:55:28;24.33;;;11.45;;
38935;SDS011;25541;47.458;9.644;2022-12-17T10:58:18;25.17;;;11.77;;
38935;SDS011;25541;47.458;9.644;2022-12-17T11:01:05;20.83;;;11.13;;
38935;SDS011;25541;47.458;9.644;2022-12-17T11:06:42;22.27;;;11.40;;
38935;SDS011;25541;47.458;9.644;2022-12-17T11:12:25;20.40;;;10.52;;
38935;SDS011;25541;47.458;9.644;2022-12-17T11:15:21;21.63;;;11.30;;
38935;SDS011;25541;47.458;9.644;2022-12-17T11:24:25;17.83;;;9.25;;
38935;SDS011;25541;47.458;9.644;2022-12-17T11:27:19;19.70;;;9.95;;
38935;SDS011;25541;47.458;9.644;2022-12-17T11:30:14;17.75;;;9.82;;
38935;SDS011;25541;47.458;9.644;2022-12-17T11:33:05;18.08;;;9.55;;
38935;SDS011;25541;47.458;9.644;2022-12-17T11:36:08;23.52;;;10.73;;
38935;SDS011;25541;47.458;9.644;2022-12-17T11:39:15;20.83;;;10.35;;
38935;SDS011;25541;47.458;9.644;2022-12-17T11:42:19;21.58;;;10.32;;
38935;SDS011;25541;47.458;9.644;2022-12-17T11:48:35;21.10;;;9.90;;
38935;SDS011;25541;47.458;9.644;2022-12-17T11:57:26;20.23;;;10.18;;
38935;SDS011;25541;47.458;9.644;2022-12-17T12:00:20;19.85;;;10.23;;
38935;SDS011;25541;47.458;9.644;2022-12-17T12:03:20;22.23;;;11.02;;
38935;SDS011;25541;47.458;9.644;2022-12-17T12:06:16;19.85;;;10.27;;
38935;SDS011;25541;47.458;9.644;2022-12-17T12:09:19;19.90;;;10.65;;
38935;SDS011;25541;47.458;9.644;2022-12-17T12:21:22;21.92;;;10.63;;
38935;SDS011;25541;47.458;9.644;2022-12-17T12:26:42;21.50;;;11.30;;
38935;SDS011;25541;47.458;9.644;2022-12-17T12:29:46;20.05;;;10.18;;
38935;SDS011;25541;47.458;9.644;2022-12-17T12:35:51;18.92;;;9.32;;
38935;SDS011;25541;47.458;9.644;2022-12-17T12:38:42;19.52;;;9.13;;
38935;SDS011;25541;47.458;9.644;2022-12-17T12:47:20;19.67;;;9.93;;
38935;SDS011;25541;47.458;9.644;2022-12-17T12:53:19;19.23;;;9.93;;
38935;SDS011;25541;47.458;9.644;2022-12-17T12:56:03;21.33;;;10.57;;
38935;SDS011;25541;47.458;9.644;2022-12-17T12:58:48;23.98;;;11.25;;
38935;SDS011;25541;47.458;9.644;2022-12-17T13:01:36;20.10;;;10.13;;
38935;SDS011;25541;47.458;9.644;2022-12-17T13:04:33;21.45;;;10.35;;
38935;SDS011;25541;47.458;9.644;2022-12-17T13:07:20;22.30;;;11.20;;
38935;SDS011;25541;47.458;9.644;2022-12-17T13:09:55;22.65;;;10.80;;
38935;SDS011;25541;47.458;9.644;2022-12-17T13:12:27;21.65;;;11.27;;
38935;SDS011;25541;47.458;9.644;2022-12-17T13:17:35;22.35;;;10.18;;
38935;SDS011;25541;47.458;9.644;2022-12-17T13:25:35;23.50;;;10.88;;
38935;SDS011;25541;47.458;9.644;2022-12-17T13:28:02;25.63;;;11.63;;
38935;SDS011;25541;47.458;9.644;2022-12-17T13:30:34;24.42;;;11.00;;
38935;SDS011;25541;47.458;9.644;2022-12-17T13:33:21;23.70;;;10.80;;
38935;SDS011;25541;47.458;9.644;2022-12-17T13:41:20;23.13;;;11.27;;
38935;SDS011;25541;47.458;9.644;2022-12-17T13:43:53;25.48;;;11.05;;
38935;SDS011;25541;47.458;9.644;2022-12-17T13:46:23;26.33;;;11.25;;
38935;SDS011;25541;47.458;9.644;2022-12-17T13:49:05;24.55;;;12.07;;
38935;SDS011;25541;47.458;9.644;2022-12-17T13:51:40;23.73;;;11.10;;
38935;SDS011;25541;47.458;9.644;2022-12-17T13:54:11;23.30;;;10.95;;
38935;SDS011;25541;47.458;9.644;2022-12-17T13:56:40;25.25;;;11.38;;
38935;SDS011;25541;47.458;9.644;2022-12-17T13:59:14;26.23;;;11.50;;
38935;SDS011;25541;47.458;9.644;2022-12-17T14:01:45;28.38;;;11.93;;
38935;SDS011;25541;47.458;9.644;2022-12-17T14:04:26;28.23;;;11.63;;
38935;SDS011;25541;47.458;9.644;2022-12-17T14:06:53;29.00;;;11.80;;
38935;SDS011;25541;47.458;9.644;2022-12-17T14:09:23;25.65;;;10.88;;
38935;SDS011;25541;47.458;9.644;2022-12-17T14:12:04;28.98;;;12.13;;
38935;SDS011;25541;47.458;9.644;2022-12-17T14:14:48;29.35;;;12.93;;
38935;SDS011;25541;47.458;9.644;2022-12-17T14:17:22;26.55;;;11.80;;
38935;SDS011;25541;47.458;9.644;2022-12-17T14:19:50;28.67;;;12.02;;
38935;SDS011;25541;47.458;9.644;2022-12-17T14:22:37;24.65;;;11.48;;
38935;SDS011;25541;47.458;9.644;2022-12-17T14:25:51;28.85;;;12.55;;
38935;SDS011;25541;47.458;9.644;2022-12-17T14:28:04;28.90;;;12.95;;
38935;SDS011;25541;47.458;9.644;2022-12-17T14:30:41;27.30;;;11.88;;
38935;SDS011;25541;47.458;9.644;2022-12-17T14:36:04;29.02;;;12.32;;
38935;SDS011;25541;47.458;9.644;2022-12-17T14:38:32;26.95;;;11.98;;
38935;SDS011;25541;47.458;9.644;2022-12-17T14:41:01;26.73;;;11.80;;
38935;SDS011;25541;47.458;9.644;2022-12-17T14:43:59;25.38;;;11.50;;
38935;SDS011;25541;47.458;9.644;2022-12-17T14:46:29;26.27;;;11.90;;
38935;SDS011;25541;47.458;9.644;2022-12-17T14:48:57;29.48;;;12.75;;
38935;SDS011;25541;47.458;9.644;2022-12-17T14:51:35;31.48;;;14.00;;
38935;SDS011;25541;47.458;9.644;2022-12-17T14:56:56;32.05;;;15.50;;
38935;SDS011;25541;47.458;9.644;2022-12-17T14:59:24;31.30;;;13.30;;
38935;SDS011;25541;47.458;9.644;2022-12-17T15:01:50;32.00;;;14.05;;
38935;SDS011;25541;47.458;9.644;2022-12-17T15:04:17;33.92;;;15.32;;
38935;SDS011;25541;47.458;9.644;2022-12-17T15:06:43;35.08;;;15.50;;
38935;SDS011;25541;47.458;9.644;2022-12-17T15:09:10;34.65;;;14.50;;
38935;SDS011;25541;47.458;9.644;2022-12-17T15:11:37;32.95;;;13.48;;
38935;SDS011;25541;47.458;9.644;2022-12-17T15:14:03;32.47;;;14.00;;
38935;SDS011;25541;47.458;9.644;2022-12-17T15:16:29;36.63;;;16.08;;
38935;SDS011;25541;47.458;9.644;2022-12-17T15:18:55;36.75;;;15.35;;
38935;SDS011;25541;47.458;9.644;2022-12-17T15:21:20;29.05;;;12.65;;
38935;SDS011;25541;47.458;9.644;2022-12-17T15:23:48;28.27;;;12.57;;
38935;SDS011;25541;47.458;9.644;2022-12-17T15:26:14;31.20;;;12.70;;
38935;SDS011;25541;47.458;9.644;2022-12-17T15:28:41;32.17;;;13.13;;
38935;SDS011;25541;47.458;9.644;2022-12-17T15:31:08;29.73;;;12.30;;
38935;SDS011;25541;47.458;9.644;2022-12-17T15:33:36;28.90;;;11.93;;
38935;SDS011;25541;47.458;9.644;2022-12-17T15:36:02;31.75;;;12.35;;
38935;SDS011;25541;47.458;9.644;2022-12-17T15:38:29;30.05;;;12.10;;
38935;SDS011;25541;47.458;9.644;2022-12-17T15:40:54;30.98;;;11.35;;
38935;SDS011;25541;47.458;9.644;2022-12-17T15:43:20;30.50;;;13.15;;
38935;SDS011;25541;47.458;9.644;2022-12-17T15:45:47;28.85;;;12.05;;
38935;SDS011;25541;47.458;9.644;2022-12-17T15:48:23;30.17;;;12.25;;
38935;SDS011;25541;47.458;9.644;2022-12-17T15:50:49;27.92;;;11.23;;
38935;SDS011;25541;47.458;9.644;2022-12-17T15:53:14;29.60;;;12.77;;
38935;SDS011;25541;47.458;9.644;2022-12-17T15:55:40;31.85;;;13.05;;
38935;SDS011;25541;47.458;9.644;2022-12-17T15:58:06;28.70;;;12.35;;
38935;SDS011;25541;47.458;9.644;2022-12-17T16:00:35;32.10;;;12.90;;
38935;SDS011;25541;47.458;9.644;2022-12-17T16:03:01;31.75;;;12.90;;
38935;SDS011;25541;47.458;9.644;2022-12-17T16:05:26;28.75;;;12.35;;
38935;SDS011;25541;47.458;9.644;2022-12-17T16:07:52;31.90;;;13.48;;
38935;SDS011;25541;47.458;9.644;2022-12-17T16:10:18;31.33;;;13.10;;
38935;SDS011;25541;47.458;9.644;2022-12-17T16:12:43;33.38;;;13.25;;
38935;SDS011;25541;47.458;9.644;2022-12-17T16:15:10;28.65;;;12.55;;
38935;SDS011;25541;47.458;9.644;2022-12-17T16:17:37;29.63;;;12.68;;
38935;SDS011;25541;47.458;9.644;2022-12-17T16:20:03;29.02;;;13.13;;
38935;SDS011;25541;47.458;9.644;2022-12-17T16:22:29;35.88;;;13.32;;
38935;SDS011;25541;47.458;9.644;2022-12-17T16:24:55;32.08;;;13.02;;
38935;SDS011;25541;47.458;9.644;2022-12-17T16:27:21;30.67;;;13.82;;
38935;SDS011;25541;47.458;9.644;2022-12-17T16:29:47;34.90;;;14.52;;
38935;SDS011;25541;47.458;9.644;2022-12-17T16:32:15;34.25;;;13.50;;
38935;SDS011;25541;47.458;9.644;2022-12-17T16:34:41;31.23;;;12.88;;
38935;SDS011;25541;47.458;9.644;2022-12-17T16:37:07;30.13;;;12.75;;
38935;SDS011;25541;47.458;9.644;2022-12-17T16:39:33;25.88;;;12.02;;
38935;SDS011;25541;47.458;9.644;2022-12-17T16:41:58;33.60;;;13.40;;
38935;SDS011;25541;47.458;9.644;2022-12-17T16:44:25;31.30;;;13.05;;
38935;SDS011;25541;47.458;9.644;2022-12-17T16:46:50;30.55;;;12.73;;
38935;SDS011;25541;47.458;9.644;2022-12-17T16:49:17;32.38;;;14.00;;
38935;SDS011;25541;47.458;9.644;2022-12-17T16:51:44;29.25;;;13.23;;
38935;SDS011;25541;47.458;9.644;2022-12-17T16:54:13;28.48;;;11.52;;
38935;SDS011;25541;47.458;9.644;2022-12-17T16:56:41;33.65;;;13.95;;
38935;SDS011;25541;47.458;9.644;2022-12-17T16:59:08;32.00;;;13.68;;
38935;SDS011;25541;47.458;9.644;2022-12-17T17:01:37;34.63;;;13.55;;
38935;SDS011;25541;47.458;9.644;2022-12-17T17:04:05;31.45;;;13.40;;
38935;SDS011;25541;47.458;9.644;2022-12-17T17:06:32;33.65;;;14.68;;
38935;SDS011;25541;47.458;9.644;2022-12-17T17:09:02;34.75;;;14.57;;
38935;SDS011;25541;47.458;9.644;2022-12-17T17:11:28;35.45;;;14.63;;
38935;SDS011;25541;47.458;9.644;2022-12-17T17:13:54;41.60;;;16.08;;
38935;SDS011;25541;47.458;9.644;2022-12-17T17:16:21;38.05;;;15.98;;
38935;SDS011;25541;47.458;9.644;2022-12-17T17:18:48;39.83;;;16.80;;
38935;SDS011;25541;47.458;9.644;2022-12-17T17:23:43;39.78;;;18.27;;
38935;SDS011;25541;47.458;9.644;2022-12-17T17:26:13;43.50;;;18.60;;
38935;SDS011;25541;47.458;9.644;2022-12-17T17:28:39;46.90;;;18.80;;
38935;SDS011;25541;47.458;9.644;2022-12-17T17:31:06;45.83;;;18.92;;
38935;SDS011;25541;47.458;9.644;2022-12-17T17:33:36;50.08;;;19.73;;
38935;SDS011;25541;47.458;9.644;2022-12-17T17:36:04;50.85;;;20.73;;
38935;SDS011;25541;47.458;9.644;2022-12-17T17:38:37;51.65;;;21.75;;
38935;SDS011;25541;47.458;9.644;2022-12-17T17:41:04;58.25;;;23.25;;
38935;SDS011;25541;47.458;9.644;2022-12-17T17:43:32;56.45;;;22.60;;
38935;SDS011;25541;47.458;9.644;2022-12-17T17:48:32;52.60;;;21.60;;
38935;SDS011;25541;47.458;9.644;2022-12-17T17:50:59;54.40;;;21.20;;
38935;SDS011;25541;47.458;9.644;2022-12-17T17:53:25;50.15;;;21.23;;
38935;SDS011;25541;47.458;9.644;2022-12-17T17:55:51;52.47;;;21.00;;
38935;SDS011;25541;47.458;9.644;2022-12-17T17:58:17;49.63;;;19.48;;
38935;SDS011;25541;47.458;9.644;2022-12-17T18:00:42;50.47;;;20.40;;
38935;SDS011;25541;47.458;9.644;2022-12-17T18:03:08;50.22;;;20.55;;
38935;SDS011;25541;47.458;9.644;2022-12-17T18:05:37;51.85;;;20.70;;
38935;SDS011;25541;47.458;9.644;2022-12-17T18:08:03;66.65;;;25.73;;
38935;SDS011;25541;47.458;9.644;2022-12-17T18:10:29;69.32;;;28.75;;
38935;SDS011;25541;47.458;9.644;2022-12-17T18:12:55;46.70;;;19.17;;
38935;SDS011;25541;47.458;9.644;2022-12-17T18:18:05;43.10;;;17.60;;
38935;SDS011;25541;47.458;9.644;2022-12-17T18:20:30;49.42;;;19.05;;
38935;SDS011;25541;47.458;9.644;2022-12-17T18:22:56;46.35;;;18.70;;
38935;SDS011;25541;47.458;9.644;2022-12-17T18:25:22;43.45;;;17.20;;
38935;SDS011;25541;47.458;9.644;2022-12-17T18:27:50;45.60;;;17.50;;
38935;SDS011;25541;47.458;9.644;2022-12-17T18:30:17;49.05;;;18.20;;
38935;SDS011;25541;47.458;9.644;2022-12-17T18:32:43;47.05;;;18.50;;
38935;SDS011;25541;47.458;9.644;2022-12-17T18:35:09;43.03;;;17.50;;
38935;SDS011;25541;47.458;9.644;2022-12-17T18:37:35;43.92;;;17.55;;
38935;SDS011;25541;47.458;9.644;2022-12-17T18:40:00;43.88;;;17.35;;
38935;SDS011;25541;47.458;9.644;2022-12-17T18:42:26;44.72;;;16.73;;
38935;SDS011;25541;47.458;9.644;2022-12-17T18:47:36;44.47;;;16.27;;
38935;SDS011;25541;47.458;9.644;2022-12-17T18:50:02;45.25;;;16.92;;
38935;SDS011;25541;47.458;9.644;2022-12-17T18:52:27;40.60;;;15.60;;
38935;SDS011;25541;47.458;9.644;2022-12-17T18:54:53;40.28;;;15.63;;
38935;SDS011;25541;47.458;9.644;2022-12-17T18:57:19;45.20;;;16.60;;
38935;SDS011;25541;47.458;9.644;2022-12-17T18:59:44;36.33;;;14.85;;
38935;SDS011;25541;47.458;9.644;2022-12-17T19:02:10;46.50;;;15.70;;
38935;SDS011;25541;47.458;9.644;2022-12-17T19:04:37;39.63;;;15.75;;
38935;SDS011;25541;47.458;9.644;2022-12-17T19:07:03;42.63;;;16.42;;
38935;SDS011;25541;47.458;9.644;2022-12-17T19:09:30;44.85;;;17.38;;
38935;SDS011;25541;47.458;9.644;2022-12-17T19:12:00;41.97;;;16.80;;
38935;SDS011;25541;47.458;9.644;2022-12-17T19:14:27;44.65;;;16.83;;
38935;SDS011;25541;47.458;9.644;2022-12-17T19:16:53;43.45;;;16.58;;
38935;SDS011;25541;47.458;9.644;2022-12-17T19:19:22;42.05;;;16.38;;
38935;SDS011;25541;47.458;9.644;2022-12-17T19:21:48;41.90;;;16.27;;
38935;SDS011;25541;47.458;9.644;2022-12-17T19:24:16;47.42;;;18.38;;
38935;SDS011;25541;47.458;9.644;2022-12-17T19:26:43;48.05;;;17.83;;
38935;SDS011;25541;47.458;9.644;2022-12-17T19:29:10;42.65;;;16.33;;
38935;SDS011;25541;47.458;9.644;2022-12-17T19:31:37;39.72;;;16.00;;
38935;SDS011;25541;47.458;9.644;2022-12-17T19:34:04;37.60;;;15.55;;
38935;SDS011;25541;47.458;9.644;2022-12-17T19:36:33;39.83;;;15.63;;
38935;SDS011;25541;47.458;9.644;2022-12-17T19:39:00;38.65;;;15.43;;
38935;SDS011;25541;47.458;9.644;2022-12-17T19:41:28;39.28;;;16.08;;
38935;SDS011;25541;47.458;9.644;2022-12-17T19:43:59;43.80;;;16.70;;
38935;SDS011;25541;47.458;9.644;2022-12-17T19:46:27;39.30;;;15.10;;
38935;SDS011;25541;47.458;9.644;2022-12-17T19:48:54;39.13;;;15.65;;
38935;SDS011;25541;47.458;9.644;2022-12-17T19:51:21;44.10;;;16.55;;
38935;SDS011;25541;47.458;9.644;2022-12-17T19:53:48;40.70;;;15.15;;
38935;SDS011;25541;47.458;9.644;2022-12-17T19:56:16;41.65;;;15.85;;
38935;SDS011;25541;47.458;9.644;2022-12-17T19:58:44;41.00;;;15.20;;
38935;SDS011;25541;47.458;9.644;2022-12-17T20:01:12;59.22;;;21.15;;
38935;SDS011;25541;47.458;9.644;2022-12-17T20:03:38;61.15;;;20.88;;
38935;SDS011;25541;47.458;9.644;2022-12-17T20:06:05;40.03;;;15.60;;
38935;SDS011;25541;47.458;9.644;2022-12-17T20:08:32;45.17;;;16.83;;
38935;SDS011;25541;47.458;9.644;2022-12-17T20:11:02;41.95;;;16.63;;
38935;SDS011;25541;47.458;9.644;2022-12-17T20:13:56;40.10;;;15.82;;
38935;SDS011;25541;47.458;9.644;2022-12-17T20:16:40;44.15;;;15.50;;
38935;SDS011;25541;47.458;9.644;2022-12-17T20:19:18;38.63;;;15.35;;
38935;SDS011;25541;47.458;9.644;2022-12-17T20:21:48;33.63;;;12.90;;
38935;SDS011;25541;47.458;9.644;2022-12-17T20:24:15;36.90;;;14.63;;
38935;SDS011;25541;47.458;9.644;2022-12-17T20:26:41;39.92;;;15.73;;
38935;SDS011;25541;47.458;9.644;2022-12-17T20:29:08;40.90;;;15.05;;
38935;SDS011;25541;47.458;9.644;2022-12-17T20:31:34;37.75;;;14.20;;
38935;SDS011;25541;47.458;9.644;2022-12-17T20:34:01;38.25;;;14.52;;
38935;SDS011;25541;47.458;9.644;2022-12-17T20:36:28;41.88;;;14.98;;
38935;SDS011;25541;47.458;9.644;2022-12-17T20:38:54;34.83;;;13.35;;
38935;SDS011;25541;47.458;9.644;2022-12-17T20:41:21;34.53;;;12.95;;